Time;durP1;ratioP1;P1;durP2;ratioP2;P2;SDS_P1;SDS_P2;PMS_P1;PMS_P2;Temp;Humidity;BMP_temperature;BMP_pressure;BME280_temperature;BME280_humidity;BME280_pressure;Samples;Min_cycle;Max_cycle;Signal;HPM_P1;HPM_P2
2023/10/25 00:00:10;;;;;;;2.60;2.17;;;9.30;99.90;;;8.80;100.00;96207.44;5026124;28;20045;-39
2023/10/25 00:02:37;;;;;;;2.67;2.25;;;9.30;99.90;;;8.78;100.00;96211.91;5026995;28;20025;-37
2023/10/25 00:05:02;;;;;;;3.15;2.65;;;9.30;99.90;;;8.83;100.00;96214.31;5013627;28;20453;-39
2023/10/25 00:07:28;;;;;;;3.30;1.98;;;9.30;99.90;;;8.85;100.00;96209.84;5032924;28;20036;-41
2023/10/25 00:09:54;;;;;;;2.85;2.15;;;9.40;99.90;;;8.82;100.00;96197.69;5030912;28;20102;-39
2023/10/25 00:12:21;;;;;;;3.15;2.30;;;9.30;99.90;;;8.81;100.00;96198.63;5034437;28;20053;-41
2023/10/25 00:14:47;;;;;;;2.60;2.35;;;9.30;99.90;;;8.63;100.00;96175.84;5034490;28;20034;-39
2023/10/25 00:17:12;;;;;;;2.83;2.30;;;9.30;99.90;;;8.75;100.00;96183.16;5032122;28;20036;-40
2023/10/25 00:19:38;;;;;;;2.92;2.28;;;9.30;99.90;;;8.77;100.00;96183.91;5036224;28;20399;-40
2023/10/25 00:22:04;;;;;;;6.18;2.15;;;9.30;99.90;;;8.77;100.00;96184.78;5032223;28;20662;-40
2023/10/25 00:24:29;;;;;;;2.40;2.20;;;9.30;99.90;;;8.79;100.00;96174.19;5040961;28;20048;-40
2023/10/25 00:26:55;;;;;;;4.00;2.38;;;9.30;99.90;;;8.79;100.00;96182.06;5039242;28;20025;-38
2023/10/25 00:29:21;;;;;;;2.65;2.08;;;9.30;99.90;;;8.79;100.00;96180.31;5041682;28;20303;-40
2023/10/25 00:31:46;;;;;;;3.17;2.10;;;9.30;99.90;;;8.83;100.00;96174.88;5036234;28;20049;-39
2023/10/25 00:34:12;;;;;;;2.58;2.15;;;9.30;99.90;;;8.80;100.00;96165.38;5037464;28;20317;-40
2023/10/25 00:36:38;;;;;;;3.60;1.90;;;9.30;99.90;;;8.83;100.00;96170.50;5039498;28;20021;-38
2023/10/25 00:39:04;;;;;;;2.13;1.75;;;9.30;99.90;;;8.84;100.00;96169.53;5030313;28;20392;-39
2023/10/25 00:41:29;;;;;;;2.17;1.95;;;9.30;99.90;;;8.83;100.00;96162.59;5039677;28;20477;-41
2023/10/25 00:43:55;;;;;;;2.03;1.73;;;9.30;99.90;;;8.81;100.00;96167.09;5032558;28;20040;-39
2023/10/25 00:46:30;;;;;;;2.35;2.15;;;9.30;99.90;;;8.81;100.00;96167.09;5036523;28;20264;-38
2023/10/25 00:48:59;;;;;;;2.13;1.75;;;9.30;99.90;;;8.83;100.00;96167.88;5017612;28;20044;-39
2023/10/25 00:51:27;;;;;;;2.03;1.75;;;9.30;99.90;;;8.79;100.00;96167.16;5032316;28;20043;-40
2023/10/25 00:53:55;;;;;;;3.15;1.98;;;9.30;99.90;;;8.84;100.00;96176.59;5015464;28;20071;-40
2023/10/25 00:56:24;;;;;;;2.20;1.85;;;9.40;99.90;;;8.86;100.00;96180.84;5032587;28;20021;-38
2023/10/25 00:58:53;;;;;;;2.67;2.20;;;9.40;99.90;;;8.75;100.00;96148.97;5006587;28;20033;-41
2023/10/25 01:01:23;;;;;;;2.58;1.90;;;9.40;99.90;;;8.88;100.00;96172.88;5036646;28;20029;-40
2023/10/25 01:03:49;;;;;;;2.13;1.90;;;9.40;99.90;;;8.88;100.00;96170.25;5037022;28;20029;-39
2023/10/25 01:06:17;;;;;;;3.28;2.85;;;9.40;99.90;;;8.92;100.00;96170.03;5024655;28;20143;-39
2023/10/25 01:08:43;;;;;;;2.80;2.03;;;9.40;99.90;;;8.93;100.00;96171.72;5017954;28;20053;-39
2023/10/25 01:11:10;;;;;;;3.58;2.47;;;9.40;99.90;;;8.92;100.00;96169.19;5022249;28;20115;-41
2023/10/25 01:13:36;;;;;;;2.60;2.00;;;9.40;99.90;;;8.89;100.00;96169.34;5035395;28;20036;-38
2023/10/25 01:16:02;;;;;;;3.63;2.22;;;9.40;99.90;;;8.89;100.00;96171.97;5023923;28;20032;-39
2023/10/25 01:18:27;;;;;;;3.83;2.15;;;9.40;99.90;;;8.86;100.00;96165.06;5030852;28;20513;-39
2023/10/25 01:20:53;;;;;;;5.05;2.25;;;9.40;99.90;;;8.80;100.00;96160.13;5027481;28;20032;-38
2023/10/25 01:23:19;;;;;;;2.45;2.03;;;9.40;99.90;;;8.81;100.00;96169.72;5031900;28;20028;-41
2023/10/25 01:25:45;;;;;;;2.90;2.22;;;9.30;99.90;;;8.81;100.00;96188.13;5013201;28;20040;-38
2023/10/25 01:28:11;;;;;;;2.50;2.15;;;9.30;99.90;;;8.79;100.00;96193.44;5027866;28;20544;-40
2023/10/25 01:30:38;;;;;;;6.63;2.58;;;9.30;99.90;;;8.81;100.00;96188.13;5008260;28;20038;-38
2023/10/25 01:33:04;;;;;;;2.75;2.05;;;9.30;99.90;;;8.71;100.00;96174.56;5030738;28;20644;-38
2023/10/25 01:35:30;;;;;;;2.67;2.45;;;9.30;99.90;;;8.79;100.00;96179.44;5031847;28;20028;-40
2023/10/25 01:37:55;;;;;;;4.25;2.42;;;9.30;99.90;;;8.74;100.00;96170.91;5028120;28;20025;-40
2023/10/25 01:40:21;;;;;;;2.90;2.50;;;9.30;99.90;;;8.71;100.00;96152.69;5030147;28;20035;-39
2023/10/25 01:42:47;;;;;;;3.65;2.70;;;9.20;99.90;;;8.69;100.00;96172.94;5037244;28;20209;-39
2023/10/25 01:45:13;;;;;;;4.07;2.60;;;9.20;99.90;;;8.63;100.00;96179.34;5031070;28;20029;-39
2023/10/25 01:47:39;;;;;;;2.47;2.28;;;9.10;99.90;;;8.55;100.00;96171.81;5030805;28;20523;-39
2023/10/25 01:50:08;;;;;;;2.35;2.10;;;9.10;99.90;;;8.48;100.00;96177.47;5030380;28;20053;-39
2023/10/25 01:52:35;;;;;;;2.92;2.58;;;9.00;99.90;;;8.40;100.00;96173.41;5033394;28;20058;-39
2023/10/25 01:55:01;;;;;;;3.25;2.10;;;8.90;99.90;;;8.22;100.00;96154.09;5026626;28;20114;-41
2023/10/25 01:57:26;;;;;;;2.58;2.22;;;8.90;99.90;;;8.28;100.00;96175.75;5035525;28;20111;-39
2023/10/25 01:59:52;;;;;;;3.20;2.60;;;8.80;99.90;;;8.26;100.00;96167.09;5036098;28;20779;-39
2023/10/25 02:02:18;;;;;;;3.05;2.40;;;8.80;99.90;;;8.18;100.00;96160.44;5031384;28;20052;-38
2023/10/25 02:04:43;;;;;;;3.28;2.15;;;8.80;99.90;;;8.21;100.00;96165.53;5032982;28;20054;-39
2023/10/25 02:07:09;;;;;;;4.78;2.70;;;8.70;99.90;;;8.20;100.00;96165.59;5025685;28;20119;-38
2023/10/25 02:09:35;;;;;;;4.05;2.67;;;8.70;99.90;;;8.19;100.00;96174.41;5031125;28;20033;-39
2023/10/25 02:12:01;;;;;;;3.58;2.63;;;8.70;99.90;;;8.21;100.00;96162.06;5032963;28;20037;-39
2023/10/25 02:14:27;;;;;;;2.60;2.40;;;8.70;99.90;;;8.25;100.00;96160.13;5029053;28;20064;-38
2023/10/25 02:16:53;;;;;;;2.65;2.17;;;8.80;99.90;;;8.21;100.00;96147.16;5028179;28;20058;-38
2023/10/25 02:19:19;;;;;;;2.47;2.25;;;8.80;99.90;;;8.32;100.00;96156.28;5028540;28;20103;-36
2023/10/25 02:21:45;;;;;;;2.50;2.30;;;8.90;99.90;;;8.32;100.00;96143.16;5026607;28;20056;-39
2023/10/25 02:24:14;;;;;;;2.55;2.13;;;8.90;99.90;;;8.40;100.00;96146.28;5030594;28;20405;-39
2023/10/25 02:26:40;;;;;;;2.92;2.03;;;8.90;99.90;;;8.46;100.00;96140.75;5015844;28;20129;-39
2023/10/25 02:29:06;;;;;;;2.47;1.90;;;9.00;99.90;;;8.50;100.00;96144.91;5032875;28;20059;-39
2023/10/25 02:31:33;;;;;;;2.00;1.70;;;9.10;99.90;;;8.54;100.00;96148.25;5031705;28;20124;-39
2023/10/25 02:33:59;;;;;;;2.20;1.80;;;9.10;99.90;;;8.56;100.00;96138.50;5024668;28;20037;-38
2023/10/25 02:36:25;;;;;;;2.38;1.80;;;9.10;99.90;;;8.57;100.00;96138.44;5007734;28;20025;-39
2023/10/25 02:38:51;;;;;;;3.17;2.17;;;9.10;99.90;;;8.57;100.00;96138.44;5032735;28;20039;-39
2023/10/25 02:41:17;;;;;;;2.47;2.13;;;9.20;99.90;;;8.60;100.00;96134.84;5032260;28;20438;-39
2023/10/25 02:43:43;;;;;;;2.40;1.92;;;9.10;99.90;;;8.60;100.00;96129.56;5036658;28;20158;-39
2023/10/25 02:46:09;;;;;;;1.67;1.58;;;9.10;99.90;;;8.62;100.00;96129.50;5033836;28;20040;-39
2023/10/25 02:48:36;;;;;;;3.25;1.77;;;9.10;99.90;;;8.57;100.00;96122.69;5013023;28;20029;-37
2023/10/25 02:51:03;;;;;;;2.08;1.77;;;9.20;99.90;;;8.61;100.00;96118.13;5005524;28;20025;-38
2023/10/25 02:53:29;;;;;;;3.10;1.90;;;9.10;99.90;;;8.59;100.00;96120.81;5028097;28;20028;-38
2023/10/25 02:56:05;;;;;;;1.80;1.70;;;9.10;99.90;;;8.60;100.00;96116.44;5035413;28;20417;-39
2023/10/25 02:58:32;;;;;;;2.20;1.60;;;9.10;99.90;;;8.58;100.00;96115.66;5033664;28;20032;-38
2023/10/25 03:00:58;;;;;;;2.08;1.65;;;9.10;99.90;;;8.62;100.00;96113.72;5028611;28;20232;-38
2023/10/25 03:03:27;;;;;;;3.15;1.90;;;9.20;99.90;;;8.66;100.00;96112.66;5028434;28;20025;-38
2023/10/25 03:05:53;;;;;;;2.55;1.70;;;9.20;99.90;;;8.66;100.00;96105.59;5034996;28;20444;-38
2023/10/25 03:08:20;;;;;;;1.80;1.55;;;9.20;99.90;;;8.62;100.00;96092.72;5029239;28;20897;-39
2023/10/25 03:10:45;;;;;;;2.47;1.92;;;9.20;99.90;;;8.46;100.00;96069.81;5032173;28;20123;-38
2023/10/25 03:13:11;;;;;;;1.52;1.42;;;9.20;99.90;;;8.63;100.00;96097.88;5029501;28;20338;-40
2023/10/25 03:15:37;;;;;;;1.77;1.67;;;9.10;99.90;;;8.61;100.00;96091.84;5032776;28;20033;-41
2023/10/25 03:18:03;;;;;;;2.30;1.60;;;9.10;99.90;;;8.57;100.00;96091.13;5027131;28;20029;-38
2023/10/25 03:20:29;;;;;;;2.03;1.77;;;9.20;99.90;;;8.54;100.00;96086.06;5028139;28;20029;-39
2023/10/25 03:22:56;;;;;;;2.58;2.10;;;9.10;99.90;;;8.51;100.00;96077.47;5024628;28;20068;-40
2023/10/25 03:25:22;;;;;;;3.25;2.10;;;9.10;99.90;;;8.53;100.00;96089.59;5032638;28;20044;-38
2023/10/25 03:27:48;;;;;;;3.45;2.65;;;9.10;99.90;;;8.48;100.00;96083.72;5030422;28;20401;-38
2023/10/25 03:30:14;;;;;;;2.60;2.40;;;9.00;99.90;;;8.41;100.00;96077.03;5020853;28;21541;-39
2023/10/25 03:32:39;;;;;;;2.63;2.30;;;9.00;99.90;;;8.34;100.00;96076.47;5026560;28;20657;-39
2023/10/25 03:35:06;;;;;;;2.85;2.38;;;8.90;99.90;;;8.21;100.00;96073.59;5032212;28;20075;-37
2023/10/25 03:37:32;;;;;;;2.35;2.00;;;8.80;99.90;;;8.20;100.00;96079.81;5033396;28;20621;-40
2023/10/25 03:39:57;;;;;;;2.80;2.28;;;8.70;99.90;;;8.15;100.00;96078.34;5030193;28;20081;-38
2023/10/25 03:42:23;;;;;;;2.67;2.30;;;8.70;99.90;;;8.09;100.00;96076.81;5033345;28;20416;-36
2023/10/25 03:44:49;;;;;;;3.72;2.35;;;8.60;99.90;;;8.01;100.00;96071.94;5032074;28;20044;-40
2023/10/25 03:47:14;;;;;;;2.83;2.10;;;8.60;99.90;;;7.95;100.00;96068.75;5030954;28;20187;-38
2023/10/25 03:49:40;;;;;;;2.00;1.80;;;8.50;99.90;;;7.91;100.00;96075.94;5032685;28;20040;-39
2023/10/25 03:52:06;;;;;;;2.78;2.17;;;8.50;99.90;;;7.88;100.00;96077.84;5028239;28;20455;-40
2023/10/25 03:54:31;;;;;;;2.28;2.00;;;8.40;99.90;;;7.84;100.00;96083.25;5028631;28;20461;-39
2023/10/25 03:56:57;;;;;;;2.10;1.90;;;8.40;99.90;;;7.82;100.00;96085.13;5011630;28;20063;-38
2023/10/25 03:59:23;;;;;;;2.10;1.80;;;8.30;99.90;;;7.78;100.00;96072.19;5030046;28;20057;-37
2023/10/25 04:01:49;;;;;;;2.10;1.90;;;8.30;99.90;;;7.77;100.00;96068.72;5034530;28;20465;-39
2023/10/25 04:04:14;;;;;;;2.30;2.10;;;8.30;99.90;;;7.72;100.00;96065.47;5024070;28;20091;-39
2023/10/25 04:06:40;;;;;;;4.03;2.22;;;8.30;99.90;;;7.70;100.00;96069.94;5022284;28;20033;-37
2023/10/25 04:09:08;;;;;;;2.90;2.20;;;8.30;99.90;;;7.62;100.00;96056.31;5029396;28;20028;-37
2023/10/25 04:11:33;;;;;;;5.05;2.22;;;8.20;99.90;;;7.67;100.00;96064.00;5027874;28;20084;-38
2023/10/25 04:13:59;;;;;;;2.70;2.38;;;8.20;99.90;;;7.63;100.00;96060.66;5029850;28;20029;-38
2023/10/25 04:16:25;;;;;;;3.75;2.78;;;8.20;99.90;;;7.60;100.00;96064.25;5025087;28;20036;-38
2023/10/25 04:18:50;;;;;;;3.13;2.50;;;8.20;99.90;;;7.55;100.00;96054.91;5019837;28;20037;-37
2023/10/25 04:21:16;;;;;;;3.03;2.38;;;8.20;99.90;;;7.58;100.00;96060.84;5020958;28;20144;-41
2023/10/25 04:23:42;;;;;;;3.25;2.25;;;8.20;99.90;;;7.54;100.00;96045.34;5028319;28;20035;-38
2023/10/25 04:26:11;;;;;;;2.20;2.00;;;8.20;99.90;;;7.50;100.00;96046.38;5026349;28;20043;-40
2023/10/25 04:28:39;;;;;;;3.15;2.40;;;8.10;99.90;;;7.48;100.00;96056.09;5029238;28;20040;-39
2023/10/25 04:31:07;;;;;;;2.70;2.10;;;8.10;99.90;;;7.44;100.00;96050.16;5025045;28;20032;-40
2023/10/25 04:33:32;;;;;;;3.47;2.03;;;8.10;99.90;;;7.43;100.00;96053.72;5027776;28;20280;-40
2023/10/25 04:35:58;;;;;;;2.20;1.98;;;8.00;99.90;;;7.38;100.00;96047.81;5015114;28;20032;-38
2023/10/25 04:38:24;;;;;;;2.20;1.88;;;8.00;99.90;;;7.34;100.00;96043.63;5025217;28;20536;-40
2023/10/25 04:40:51;;;;;;;2.10;1.95;;;8.00;99.90;;;7.31;100.00;96036.75;5030926;28;20037;-39
2023/10/25 04:43:17;;;;;;;2.97;1.73;;;8.10;99.90;;;7.28;100.00;96036.03;5026582;28;20409;-39
2023/10/25 04:45:44;;;;;;;2.17;1.98;;;7.80;99.90;;;7.24;100.00;96027.47;5026327;28;20047;-36
2023/10/25 04:48:09;;;;;;;2.88;2.25;;;7.80;99.90;;;7.04;100.00;95986.44;5021420;28;20068;-38
2023/10/25 04:50:37;;;;;;;4.13;2.17;;;7.80;99.90;;;7.21;100.00;96019.72;5016439;28;20501;-38
2023/10/25 04:53:04;;;;;;;3.58;2.42;;;7.80;99.90;;;7.19;100.00;96021.56;5028905;28;20111;-38
2023/10/25 04:55:31;;;;;;;3.00;2.40;;;7.80;99.90;;;7.18;100.00;96019.91;5018607;28;20029;-36
2023/10/25 04:57:57;;;;;;;3.30;2.53;;;7.80;99.90;;;7.16;100.00;96008.59;5026765;28;20039;-38
2023/10/25 05:00:24;;;;;;;2.95;2.40;;;7.70;99.90;;;7.08;100.00;96003.72;5024275;28;20056;-37
2023/10/25 05:02:49;;;;;;;3.15;2.50;;;7.70;99.90;;;7.09;100.00;96002.81;5028328;28;20032;-37
2023/10/25 05:05:15;;;;;;;2.50;2.00;;;7.70;99.90;;;7.00;100.00;95993.59;5025789;28;20062;-37
2023/10/25 05:07:42;;;;;;;3.65;2.38;;;7.60;99.90;;;7.06;100.00;96005.56;5029837;28;20413;-37
2023/10/25 05:10:09;;;;;;;2.45;2.20;;;7.60;99.90;;;7.04;100.00;95991.66;5024817;28;20060;-37
2023/10/25 05:12:48;;;;;;;3.13;2.50;;;7.60;99.90;;;6.99;100.00;95988.41;5026807;28;20064;-37
2023/10/25 05:15:18;;;;;;;3.28;2.47;;;7.60;99.90;;;7.04;100.00;95994.28;5027303;28;20163;-37
2023/10/25 05:17:47;;;;;;;3.75;2.60;;;7.60;99.90;;;7.05;100.00;95991.59;5032876;28;20079;-37
2023/10/25 05:20:14;;;;;;;2.60;2.20;;;7.60;99.90;;;7.02;100.00;95985.66;5033709;28;20115;-37
2023/10/25 05:22:43;;;;;;;2.85;2.40;;;7.60;99.90;;;6.98;100.00;95979.69;5029517;28;20055;-37
2023/10/25 05:25:10;;;;;;;3.10;2.50;;;7.60;99.90;;;6.89;100.00;95974.84;5011740;28;20504;-39
2023/10/25 05:27:37;;;;;;;4.85;2.65;;;7.50;99.90;;;6.95;100.00;95990.31;5033787;28;20131;-37
2023/10/25 05:30:07;;;;;;;5.78;2.45;;;7.60;99.90;;;6.96;100.00;95981.50;5031874;28;20029;-37
2023/10/25 05:32:38;;;;;;;2.95;2.38;;;7.50;99.90;;;6.95;100.00;95974.59;5011187;28;20044;-37
2023/10/25 05:35:05;;;;;;;3.55;2.42;;;7.50;99.90;;;6.93;100.00;95975.56;5029974;28;20098;-37
2023/10/25 05:37:32;;;;;;;3.47;2.30;;;7.50;99.90;;;6.90;100.00;95973.94;5026423;28;20324;-37
2023/10/25 05:39:58;;;;;;;4.50;2.47;;;7.50;99.90;;;6.87;100.00;95961.84;5030760;28;20118;-37
2023/10/25 05:42:25;;;;;;;3.00;2.50;;;7.50;99.90;;;6.78;100.00;95941.28;5012956;28;20143;-39
2023/10/25 05:44:53;;;;;;;2.90;2.60;;;7.50;99.90;;;6.86;100.00;95961.91;5030218;28;20171;-37
2023/10/25 05:47:21;;;;;;;3.67;2.28;;;7.50;99.90;;;6.83;100.00;95955.00;5027027;28;20029;-38
2023/10/25 05:49:47;;;;;;;3.85;2.70;;;7.40;99.90;;;6.80;100.00;95954.31;5027288;28;20033;-37
2023/10/25 05:52:14;;;;;;;3.78;3.10;;;7.40;99.90;;;6.82;100.00;95962.94;5031351;28;20119;-37
2023/10/25 05:54:40;;;;;;;3.17;2.65;;;7.40;99.90;;;6.82;100.00;95962.94;5036672;28;20033;-37
2023/10/25 05:57:07;;;;;;;3.33;2.65;;;7.40;99.90;;;6.82;100.00;95958.56;5028016;28;20029;-37
2023/10/25 05:59:34;;;;;;;4.28;3.20;;;7.50;99.90;;;6.86;100.00;95964.53;5027944;28;20036;-37
2023/10/25 06:02:14;;;;;;;3.33;3.03;;;7.50;99.90;;;6.89;100.00;95964.38;5034019;28;20064;-37
2023/10/25 06:04:41;;;;;;;5.50;3.30;;;7.50;99.90;;;6.92;100.00;95961.63;5031990;28;20531;-39
2023/10/25 06:07:10;;;;;;;4.13;3.42;;;7.50;99.90;;;6.94;100.00;95961.56;5027311;28;20033;-37
2023/10/25 06:09:37;;;;;;;5.10;3.15;;;7.50;99.90;;;6.98;100.00;95961.34;5031412;28;20032;-39
2023/10/25 06:12:04;;;;;;;4.28;3.40;;;7.60;99.90;;;7.07;100.00;95963.53;5027773;28;20040;-37
2023/10/25 06:14:31;;;;;;;4.32;3.58;;;7.60;99.90;;;7.18;100.00;95959.59;5032475;28;20362;-37
2023/10/25 06:16:58;;;;;;;4.78;3.60;;;7.80;99.90;;;7.31;100.00;95950.22;5032860;28;20013;-37
2023/10/25 06:19:25;;;;;;;4.78;3.70;;;7.90;99.90;;;7.46;100.00;95948.63;5012054;28;20036;-38
2023/10/25 06:21:51;;;;;;;5.65;4.32;;;8.00;99.90;;;7.53;100.00;95933.47;5032947;28;20515;-38
2023/10/25 06:24:17;;;;;;;5.05;4.03;;;8.20;99.90;;;7.70;100.00;95935.25;5030478;28;20098;-38
2023/10/25 06:26:42;;;;;;;5.75;3.80;;;8.30;99.90;;;7.80;100.00;95933.88;5035139;28;20409;-38
2023/10/25 06:29:08;;;;;;;6.00;3.97;;;8.40;99.90;;;7.84;100.00;95933.66;5031058;28;20029;-37
2023/10/25 06:31:35;;;;;;;5.43;4.13;;;8.40;99.90;;;7.82;100.00;95925.03;5031634;28;20574;-37
2023/10/25 06:34:01;;;;;;;6.57;4.32;;;8.40;99.90;;;7.92;100.00;95932.44;5034346;28;20025;-38
2023/10/25 06:36:27;;;;;;;4.78;3.88;;;8.50;99.90;;;7.92;100.00;95925.41;5026640;28;20385;-36
2023/10/25 06:38:53;;;;;;;5.65;4.68;;;8.50;99.90;;;7.89;100.00;95928.16;5029959;28;20120;-37
2023/10/25 06:41:24;;;;;;;5.32;4.13;;;8.50;99.90;;;7.87;100.00;95929.19;5030145;28;20033;-38
2023/10/25 06:43:50;;;;;;;6.47;4.55;;;8.40;99.90;;;7.83;100.00;95926.69;5032609;28;20477;-37
2023/10/25 06:46:17;;;;;;;6.75;4.22;;;8.40;99.90;;;7.82;100.00;95930.28;5021455;28;20034;-37
2023/10/25 06:48:43;;;;;;;5.47;4.35;;;8.40;99.90;;;7.71;100.00;95908.09;5026330;28;20517;-37
2023/10/25 06:51:09;;;;;;;6.47;4.97;;;8.50;99.90;;;7.94;100.00;95930.56;5032813;28;20056;-38
2023/10/25 06:53:36;;;;;;;5.90;4.57;;;8.50;99.90;;;7.97;100.00;95923.41;5028679;28;20033;-37
2023/10/25 06:56:04;;;;;;;5.85;4.55;;;8.60;99.90;;;8.16;100.00;95928.56;5027871;28;20076;-37
2023/10/25 06:58:30;;;;;;;9.48;5.32;;;8.70;99.90;;;8.30;100.00;95919.13;5025084;28;20466;-37
2023/10/25 07:00:57;;;;;;;6.07;4.75;;;8.90;99.90;;;8.50;100.00;95918.97;5023040;28;20030;-37
2023/10/25 07:03:47;;;;;;;6.55;4.85;;;9.00;99.90;;;8.71;100.00;95903.00;5005405;28;20158;-39
2023/10/25 07:06:18;;;;;;;8.52;4.85;;;9.20;99.90;;;8.81;100.00;95893.72;5024208;28;20037;-37
2023/10/25 07:08:45;;;;;;;8.02;5.07;;;9.30;99.90;;;8.91;100.00;95894.06;5029888;28;20104;-37
2023/10/25 07:11:11;;;;;;;6.78;5.18;;;9.40;99.90;;;9.00;100.00;95887.44;5015566;28;20025;-38
2023/10/25 07:13:37;;;;;;;8.02;5.13;;;9.50;99.90;;;9.08;100.00;95880.84;5022979;28;20091;-37
2023/10/25 07:16:03;;;;;;;7.57;5.32;;;9.60;99.90;;;9.16;100.00;95885.66;5012799;28;20037;-37
2023/10/25 07:18:29;;;;;;;8.55;5.28;;;9.70;99.90;;;9.20;100.00;95876.66;5024022;28;20037;-36
2023/10/25 07:20:56;;;;;;;6.03;4.85;;;9.70;99.90;;;9.30;100.00;95875.22;5030339;28;21501;-37
2023/10/25 07:23:21;;;;;;;7.35;5.20;;;9.80;99.90;;;9.34;100.00;95863.59;5028254;28;20448;-37
2023/10/25 07:25:47;;;;;;;6.13;5.20;;;9.90;99.90;;;9.41;100.00;95871.97;5032163;28;20090;-37
2023/10/25 07:28:14;;;;;;;6.68;5.45;;;9.90;99.90;;;9.39;100.00;95858.06;5030241;28;20033;-38
2023/10/25 07:30:39;;;;;;;8.07;5.18;;;9.90;99.90;;;9.51;100.00;95877.56;5009315;28;20037;-37
2023/10/25 07:33:06;;;;;;;6.25;4.95;;;10.00;99.90;;;9.64;100.00;95870.66;5030278;28;20031;-38
2023/10/25 07:35:31;;;;;;;6.68;5.15;;;10.10;99.90;;;9.75;100.00;95868.25;5023474;28;20448;-37
2023/10/25 07:37:57;;;;;;;5.20;4.40;;;10.20;99.90;;;9.87;100.00;95877.25;5030549;28;20025;-37
2023/10/25 07:40:23;;;;;;;6.57;4.93;;;10.40;99.90;;;9.91;100.00;95870.00;5026895;28;20567;-39
2023/10/25 07:42:48;;;;;;;6.03;4.60;;;10.40;99.90;;;10.03;100.00;95869.28;5028931;28;20025;-37
2023/10/25 07:45:14;;;;;;;5.05;4.55;;;10.50;99.90;;;10.04;100.00;95872.75;5030137;28;20040;-37
2023/10/25 07:47:40;;;;;;;7.55;4.72;;;10.60;99.90;;;10.08;100.00;95866.38;5007879;28;20068;-37
2023/10/25 07:50:06;;;;;;;4.35;3.90;;;10.60;99.90;;;10.08;100.00;95866.38;5020101;28;20091;-37
2023/10/25 07:52:35;;;;;;;5.35;4.55;;;10.60;99.90;;;9.95;100.00;95850.44;5028760;28;20033;-37
2023/10/25 07:55:05;;;;;;;7.18;4.25;;;10.60;99.90;;;9.88;100.00;95844.69;5023987;28;20036;-38
2023/10/25 07:57:31;;;;;;;6.22;4.10;;;10.50;99.90;;;9.91;100.00;95855.06;5021802;28;20029;-37
2023/10/25 07:59:58;;;;;;;5.38;3.80;;;10.50;99.90;;;9.82;100.00;95847.69;5030794;28;20029;-38
2023/10/25 08:02:23;;;;;;;5.00;4.30;;;10.40;99.90;;;9.83;100.00;95851.16;5028934;28;20068;-37
2023/10/25 08:04:49;;;;;;;4.95;4.05;;;10.40;99.90;;;9.86;100.00;95845.72;5028531;28;20033;-37
2023/10/25 08:07:15;;;;;;;6.47;3.95;;;10.40;99.90;;;9.93;100.00;95839.16;5015990;28;20118;-37
2023/10/25 08:09:42;;;;;;;6.90;4.70;;;10.50;99.90;;;10.01;100.00;95844.81;5025200;28;20041;-37
2023/10/25 08:12:09;;;;;;;5.93;4.53;;;10.50;99.90;;;10.06;100.00;95832.22;5023050;28;20519;-37
2023/10/25 08:14:35;;;;;;;5.53;4.28;;;10.60;99.90;;;10.21;100.00;95833.09;5008061;28;20279;-37
2023/10/25 08:17:01;;;;;;;5.70;4.30;;;10.80;99.90;;;10.45;100.00;95836.03;5029900;28;20024;-37
2023/10/25 08:19:27;;;;;;;4.72;4.15;;;10.90;99.90;;;10.47;100.00;95805.16;5029660;28;20029;-37
2023/10/25 08:21:53;;;;;;;4.35;3.95;;;11.10;99.90;;;10.78;100.00;95834.03;5030823;28;20032;-37
2023/10/25 08:24:18;;;;;;;6.18;4.15;;;11.30;99.90;;;10.93;100.00;95819.03;5023934;28;20033;-38
2023/10/25 08:26:45;;;;;;;4.45;3.95;;;11.50;99.90;;;11.16;100.00;95818.44;5025970;28;20044;-37
2023/10/25 08:29:11;;;;;;;4.90;4.20;;;11.70;99.90;;;11.20;100.00;95816.44;5022212;28;20029;-38
2023/10/25 08:31:37;;;;;;;4.95;4.30;;;11.80;99.90;;;11.35;100.00;95822.50;5026887;28;20040;-37
2023/10/25 08:34:03;;;;;;;4.75;3.72;;;11.90;99.90;;;11.48;100.00;95817.28;5028147;28;20138;-38
2023/10/25 08:36:30;;;;;;;5.15;4.13;;;12.00;99.90;;;11.54;100.00;95822.13;5026092;28;20120;-38
2023/10/25 08:38:56;;;;;;;5.78;3.80;;;12.10;99.90;;;11.69;100.00;95821.13;5021566;28;20096;-38
2023/10/25 08:41:27;;;;;;;4.35;3.72;;;12.20;99.90;;;11.79;100.00;95808.16;5027862;28;20066;-38
2023/10/25 08:43:53;;;;;;;4.32;3.30;;;12.30;99.90;;;11.83;100.00;95805.22;5030893;28;20251;-39
2023/10/25 08:46:20;;;;;;;5.80;3.47;;;12.40;99.90;;;11.85;100.00;95813.88;5031226;28;20499;-38
2023/10/25 08:48:47;;;;;;;4.07;3.28;;;12.40;99.90;;;11.85;100.00;95815.69;5028539;28;20040;-37
2023/10/25 08:51:14;;;;;;;3.30;3.00;;;12.40;99.90;;;11.84;100.00;95816.63;5032741;28;20060;-39
2023/10/25 08:53:42;;;;;;;4.18;3.03;;;12.30;99.90;;;11.80;100.00;95817.78;5034302;28;20461;-37
2023/10/25 08:56:07;;;;;;;3.58;2.58;;;12.30;99.90;;;11.78;100.00;95822.31;5028278;28;20486;-37
2023/10/25 08:58:33;;;;;;;4.82;2.67;;;12.20;99.90;;;11.77;100.00;95805.63;5025495;28;20156;-36
2023/10/25 09:00:59;;;;;;;3.67;2.90;;;12.30;99.90;;;11.75;100.00;95786.38;5020146;28;20164;-39
2023/10/25 09:03:33;;;;;;;3.08;2.70;;;12.30;99.90;;;11.90;100.00;95799.50;5005353;28;20655;-38
2023/10/25 09:06:04;;;;;;;3.97;2.40;;;12.40;99.90;;;11.95;100.00;95794.78;5022170;28;20438;-37
2023/10/25 09:08:31;;;;;;;3.25;2.60;;;12.50;99.90;;;11.90;100.00;95787.19;5029358;28;20036;-37
2023/10/25 09:11:08;;;;;;;3.00;2.70;;;12.40;99.90;;;11.91;100.00;95791.50;5026289;28;20489;-38
2023/10/25 09:13:39;;;;;;;3.35;2.60;;;12.40;99.90;;;11.87;100.00;95791.81;5024626;28;20032;-37
2023/10/25 09:16:12;;;;;;;3.45;2.40;;;12.30;99.90;;;11.81;100.00;95785.97;5021436;28;20029;-38
2023/10/25 09:18:40;;;;;;;3.10;2.60;;;12.30;99.90;;;11.83;100.00;95777.97;5032927;28;20103;-37
2023/10/25 09:21:07;;;;;;;3.50;2.50;;;12.30;99.90;;;11.81;100.00;95782.50;5024375;28;20035;-38
2023/10/25 09:23:36;;;;;;;4.38;2.83;;;12.30;99.90;;;11.74;100.00;95778.59;5024088;28;20551;-37
2023/10/25 09:26:14;;;;;;;3.40;3.00;;;12.20;99.90;;;11.70;100.00;95772.66;5028471;28;20095;-37
2023/10/25 09:28:39;;;;;;;3.17;2.40;;;12.20;99.90;;;11.68;100.00;95776.34;5019869;28;20044;-37
2023/10/25 09:31:25;;;;;;;5.35;2.55;;;12.10;99.90;;;11.63;100.00;95769.59;5021372;28;20041;-37
2023/10/25 09:33:52;;;;;;;4.00;2.67;;;12.10;99.90;;;11.59;100.00;95773.38;5022546;28;20032;-37
2023/10/25 09:36:21;;;;;;;3.05;2.22;;;12.10;99.90;;;11.54;100.00;95764.06;5025055;28;20365;-38
2023/10/25 09:38:50;;;;;;;4.25;2.40;;;12.10;99.90;;;11.48;100.00;95746.84;5026916;28;20080;-37
2023/10/25 09:41:17;;;;;;;2.28;2.08;;;12.00;99.90;;;11.53;100.00;95750.03;5035256;28;20029;-37
2023/10/25 09:43:51;;;;;;;3.45;2.50;;;12.00;99.90;;;11.57;100.00;95759.41;5023010;28;20120;-37
2023/10/25 09:46:19;;;;;;;3.33;2.53;;;12.00;99.90;;;11.60;100.00;95753.94;5031504;28;20036;-37
2023/10/25 09:48:59;;;;;;;6.00;2.92;;;12.10;99.90;;;11.62;100.00;95743.28;5024251;28;20734;-37
2023/10/25 09:51:59;;;;;;;3.65;2.72;;;12.10;99.90;;;11.69;100.00;95751.63;5028590;28;20039;-37
2023/10/25 09:54:44;;;;;;;3.65;2.45;;;12.20;99.90;;;11.80;100.00;95749.09;5011323;28;20128;-38
2023/10/25 09:57:12;;;;;;;5.78;2.83;;;12.30;99.90;;;11.92;100.00;95747.47;5028311;28;20309;-37
2023/10/25 09:59:39;;;;;;;4.82;3.00;;;12.40;99.90;;;12.06;100.00;95744.72;5027057;28;20028;-37
2023/10/25 10:02:08;;;;;;;3.38;2.28;;;12.50;99.90;;;12.12;100.00;95717.84;5022116;28;20029;-37
2023/10/25 10:05:23;;;;;;;3.20;2.50;;;12.60;99.90;;;12.25;100.00;95731.06;5026913;28;20029;-37
2023/10/25 10:08:09;;;;;;;4.43;2.63;;;12.70;99.90;;;12.21;100.00;95719.00;5026783;28;20037;-37
2023/10/25 10:10:44;;;;;;;3.33;2.10;;;12.70;99.90;;;12.27;100.00;95725.66;5029209;28;20459;-37
2023/10/25 10:13:17;;;;;;;9.60;2.50;;;12.70;99.90;;;12.21;100.00;95726.94;5011633;28;20026;-37
2023/10/25 10:16:09;;;;;;;5.28;2.55;;;12.70;99.90;;;12.15;100.00;95703.56;5009904;28;20122;-37
2023/10/25 10:18:37;;;;;;;3.75;2.35;;;12.70;99.90;;;12.25;100.00;95706.44;5029560;28;20289;-37
2023/10/25 10:21:08;;;;;;;3.58;2.25;;;12.70;99.90;;;12.32;100.00;95690.03;5033323;28;20477;-37
2023/10/25 10:23:49;;;;;;;4.50;2.10;;;12.80;99.90;;;12.37;100.00;95684.41;5027665;28;20273;-37